»·PEaware :: JUS326 KABQ-KELP

JUS326 :: KABQ-KELP

FLIGHT INFORMATION

Flight Status: Arrived
Operator:
USA Jet
More flights by this operator :: More flights under this callsign
Pilot: Erik S. (3779)
Aircraft: Unknown
(DC9)
More flights by this aircraft type
Origin: KABQ Albuquerque Intl Sunport
United States
Destination: KELP El Paso Intl
United States
More flights between these airports :: More routes between these airports
Route: +ABQ3 ONM TCS RUTER J86 ELP
File this flight plan on PilotEdge
Remarks:
Altitude:
(Current/Filed)
19,000ft
Speed:
(Current/Filed)
478kts
Departed: 15-Oct-17 11:43 AM
Arrived: 15-Oct-17 12:22 PM
Distance/Time
Traveled:
194nm/0:38
Distance/Time
To Go:
Arrived

Flight Plot

Page will automatically refresh every two minutes.

Flight plan parsing failed; only flown route is shown


Map Options




Map Legend


Flown Route
Filed Route
Departure Airport
Arrival Airport
Navaid (VOR, NDB)
Fix

Horizontal Profiles

Position Reports

Time Latitude Longitude Heading Altitude Ground
Speed
15-Oct-17 11:35 35.031448 -106.623484 319 5361ft 0kts
15-Oct-17 11:36 35.031448 -106.623484 319 5361ft 0kts
15-Oct-17 11:37 35.031448 -106.623484 319 5361ft 0kts
15-Oct-17 11:38 35.031448 -106.623484 319 5361ft 0kts
15-Oct-17 11:39 35.031448 -106.623484 319 5361ft 0kts
15-Oct-17 11:40 35.031448 -106.623484 319 5361ft 0kts
15-Oct-17 11:41 35.031219 -106.623249 322 5361ft 0kts
15-Oct-17 11:42 35.031219 -106.623249 322 5361ft 0kts
15-Oct-17 11:43 35.031219 -106.623249 322 5361ft 0kts
15-Oct-17 11:44 35.030910 -106.623671 205 5361ft 8kts
15-Oct-17 11:45 35.028591 -106.625066 223 5361ft 12kts
15-Oct-17 11:46 35.025721 -106.628542 225 5361ft 16kts
15-Oct-17 11:47 35.022634 -106.630158 44 5361ft 15kts
15-Oct-17 11:48 35.040997 -106.608041 43 5914ft 182kts
15-Oct-17 11:49 35.031271 -106.559668 172 8548ft 227kts
15-Oct-17 11:50 34.965962 -106.555903 178 9065ft 235kts
15-Oct-17 11:51 34.901417 -106.573904 209 11149ft 274kts
15-Oct-17 11:52 34.825945 -106.611925 200 13973ft 322kts
15-Oct-17 11:53 34.735047 -106.650660 201 16745ft 359kts
15-Oct-17 11:54 34.639064 -106.691940 201 19342ft 383kts
15-Oct-17 11:55 34.533424 -106.737347 201 19555ft 408kts
15-Oct-17 11:56 34.426994 -106.784553 202 19527ft 409kts
15-Oct-17 11:57 34.320183 -106.830359 201 19512ft 408kts
15-Oct-17 11:58 34.210376 -106.866511 198 19514ft 409kts
15-Oct-17 11:59 34.103931 -106.911443 202 19512ft 406kts
15-Oct-17 12:00 33.998063 -106.959367 203 19511ft 405kts
15-Oct-17 12:01 33.892835 -107.006909 203 19512ft 404kts
15-Oct-17 12:02 33.788217 -107.054969 203 19512ft 403kts
15-Oct-17 12:03 33.683830 -107.103972 203 19507ft 404kts
15-Oct-17 12:04 33.579703 -107.154083 203 19494ft 404kts
15-Oct-17 12:05 33.475540 -107.204187 203 19494ft 404kts
15-Oct-17 12:06 33.371548 -107.254087 203 19494ft 404kts
15-Oct-17 12:07 33.265394 -107.295152 182 19504ft 410kts
15-Oct-17 12:08 33.163048 -107.235078 159 19495ft 419kts
15-Oct-17 12:09 33.055234 -107.187953 162 19507ft 406kts
15-Oct-17 12:10 32.947332 -107.152928 162 19459ft 418kts
15-Oct-17 12:11 32.832618 -107.110817 160 19499ft 434kts
15-Oct-17 12:12 32.717501 -107.067688 160 19490ft 434kts
15-Oct-17 12:13 32.602258 -107.024741 160 19484ft 435kts
15-Oct-17 12:14 32.487109 -106.981375 160 19485ft 436kts
15-Oct-17 12:15 32.375895 -106.928678 143 19479ft 434kts
15-Oct-17 12:16 32.280563 -106.846795 142 16779ft 413kts
15-Oct-17 12:17 32.191204 -106.767555 141 13944ft 393kts
15-Oct-17 12:18 32.108937 -106.688394 140 11194ft 376kts
15-Oct-17 12:19 32.032488 -106.614775 140 10128ft 315kts
15-Oct-17 12:20 31.972825 -106.557626 0 10142ft 0kts
15-Oct-17 12:21 31.922911 -106.510204 140 9165ft 228kts
15-Oct-17 12:22 31.873300 -106.463757 140 7600ft 226kts
15-Oct-17 12:23 31.844023 -106.405976 70 6130ft 214kts
15-Oct-17 12:24 31.878669 -106.360603 69 5245ft 166kts
15-Oct-17 12:25 31.844213 -106.340917 195 4823ft 162kts
15-Oct-17 12:26 31.817900 -106.377036 229 3965ft 105kts
15-Oct-17 12:27 31.811247 -106.384298 141 3965ft 13kts
15-Oct-17 12:28 31.815095 -106.377184 50 3965ft 40kts
15-Oct-17 12:29 31.815638 -106.371773 137 3965ft 9kts
15-Oct-17 12:30 31.815413 -106.371532 137 3965ft 0kts

Navigation Log

Ident Type
Flight plan parsing failed, navigation log unavailable